createdAt,value
2022-10-19T00:00:32.220Z,1019.81
2022-10-19T00:01:32.200Z,1019.81
2022-10-19T00:02:32.312Z,1019.82
2022-10-19T00:03:32.185Z,1019.80
2022-10-19T00:04:32.186Z,1019.82
2022-10-19T00:05:32.168Z,1019.81
2022-10-19T00:06:32.151Z,1019.82
2022-10-19T00:07:32.578Z,1019.81
2022-10-19T00:08:32.165Z,1019.84
2022-10-19T00:09:32.121Z,1019.85
2022-10-19T00:10:32.116Z,1019.86
2022-10-19T00:11:32.108Z,1019.89
2022-10-19T00:12:32.078Z,1019.89
2022-10-19T00:13:32.090Z,1019.86
2022-10-19T00:14:32.089Z,1019.85
2022-10-19T00:15:32.058Z,1019.84
2022-10-19T00:16:32.050Z,1019.80
2022-10-19T00:17:32.349Z,1019.78
2022-10-19T00:18:32.033Z,1019.84
2022-10-19T00:19:32.021Z,1019.81
2022-10-19T00:20:32.008Z,1019.83
2022-10-19T00:21:31.983Z,1019.82
2022-10-19T00:22:32.414Z,1019.82
2022-10-19T00:23:31.974Z,1019.84
2022-10-19T00:24:31.996Z,1019.88
2022-10-19T00:25:31.942Z,1019.87
2022-10-19T00:26:31.961Z,1019.84
2022-10-19T00:27:31.933Z,1019.85
2022-10-19T00:28:31.979Z,1019.81
2022-10-19T00:29:31.903Z,1019.86
2022-10-19T00:30:31.905Z,1019.83
2022-10-19T00:31:31.887Z,1019.83
2022-10-19T00:32:32.139Z,1019.82
2022-10-19T00:33:31.851Z,1019.84
2022-10-19T00:34:31.852Z,1019.79
2022-10-19T00:35:31.825Z,1019.82
2022-10-19T00:36:31.845Z,1019.79
2022-10-19T00:37:31.828Z,1019.80
2022-10-19T00:38:31.797Z,1019.81
2022-10-19T00:39:31.794Z,1019.81
2022-10-19T00:40:31.791Z,1019.80
2022-10-19T00:41:31.772Z,1019.82
2022-10-19T00:42:32.074Z,1019.84
2022-10-19T00:43:31.771Z,1019.89
2022-10-19T00:44:31.738Z,1019.84
2022-10-19T00:45:31.717Z,1019.84
2022-10-19T00:46:31.737Z,1019.86
2022-10-19T00:47:31.703Z,1019.85
2022-10-19T00:48:31.697Z,1019.83
2022-10-19T00:49:31.696Z,1019.83
2022-10-19T00:50:31.710Z,1019.80
2022-10-19T00:51:31.659Z,1019.80
2022-10-19T00:52:31.937Z,1019.81
2022-10-19T00:53:31.638Z,1019.78
2022-10-19T00:54:31.658Z,1019.80
2022-10-19T00:55:31.610Z,1019.80
2022-10-19T00:56:31.616Z,1019.81
2022-10-19T00:57:31.593Z,1019.83
2022-10-19T00:58:31.586Z,1019.82
2022-10-19T00:59:31.594Z,1019.86
2022-10-19T01:00:31.581Z,1019.86
2022-10-19T01:01:31.693Z,1019.88
2022-10-19T01:02:31.919Z,1019.88
2022-10-19T01:03:31.529Z,1019.90
2022-10-19T01:04:31.517Z,1019.89
2022-10-19T01:05:31.569Z,1019.89
2022-10-19T01:06:31.515Z,1019.84
2022-10-19T01:07:31.730Z,1019.83
2022-10-19T01:08:31.474Z,1019.84
2022-10-19T01:09:31.480Z,1019.84
2022-10-19T01:10:31.454Z,1019.82
2022-10-19T01:11:31.435Z,1019.80
2022-10-19T01:12:31.454Z,1019.75
2022-10-19T01:13:31.447Z,1019.76
2022-10-19T01:14:31.413Z,1019.79
2022-10-19T01:15:31.420Z,1019.79
2022-10-19T01:16:31.382Z,1019.79
2022-10-19T01:17:31.819Z,1019.80
2022-10-19T01:18:31.359Z,1019.83
2022-10-19T01:19:31.363Z,1019.78
2022-10-19T01:20:31.352Z,1019.79
2022-10-19T01:21:31.334Z,1019.79
2022-10-19T01:22:31.324Z,1019.78
2022-10-19T01:23:31.302Z,1019.75
2022-10-19T01:24:31.294Z,1019.74
2022-10-19T01:25:31.282Z,1019.69
2022-10-19T01:26:31.283Z,1019.64
2022-10-19T01:27:31.377Z,1019.68
2022-10-19T01:28:31.282Z,1019.67
2022-10-19T01:29:31.267Z,1019.69
2022-10-19T01:30:31.232Z,1019.62
2022-10-19T01:31:31.231Z,1019.63
2022-10-19T01:32:31.203Z,1019.59
2022-10-19T01:33:31.198Z,1019.61
2022-10-19T01:34:31.193Z,1019.64
2022-10-19T01:35:31.188Z,1019.62
2022-10-19T01:36:31.385Z,1019.63
2022-10-19T01:37:31.281Z,1019.62
2022-10-19T01:38:31.133Z,1019.61
2022-10-19T01:39:31.125Z,1019.56
2022-10-19T01:40:31.125Z,1019.60
2022-10-19T01:41:31.114Z,1019.55
2022-10-19T01:42:31.120Z,1019.57
2022-10-19T01:43:31.090Z,1019.60
2022-10-19T01:44:31.080Z,1019.58
2022-10-19T01:45:31.071Z,1019.57
2022-10-19T01:46:31.060Z,1019.61
2022-10-19T01:47:31.303Z,1019.61
2022-10-19T01:48:31.046Z,1019.64
2022-10-19T01:49:31.027Z,1019.60
2022-10-19T01:50:31.013Z,1019.57
2022-10-19T01:51:30.999Z,1019.58
2022-10-19T01:52:31.135Z,1019.56
2022-10-19T01:53:30.991Z,1019.55
2022-10-19T01:54:34.653Z,1019.56
2022-10-19T01:55:30.995Z,1019.53
2022-10-19T01:56:30.944Z,1019.54
2022-10-19T01:57:30.944Z,1019.58
2022-10-19T01:58:30.925Z,1019.59
2022-10-19T01:59:30.924Z,1019.51
2022-10-19T02:00:30.907Z,1019.50
2022-10-19T02:01:30.889Z,1019.51
2022-10-19T02:02:31.028Z,1019.49
2022-10-19T02:03:30.884Z,1019.51
2022-10-19T02:04:30.867Z,1019.44
2022-10-19T02:05:30.852Z,1019.44
2022-10-19T02:06:30.826Z,1019.44
2022-10-19T02:07:30.818Z,1019.42
2022-10-19T02:08:30.826Z,1019.42
2022-10-19T02:09:30.806Z,1019.45
2022-10-19T02:10:30.793Z,1019.44
2022-10-19T02:11:30.794Z,1019.46
2022-10-19T02:12:30.991Z,1019.43
2022-10-19T02:13:30.749Z,1019.43
2022-10-19T02:14:30.757Z,1019.40
2022-10-19T02:15:30.746Z,1019.44
2022-10-19T02:16:30.724Z,1019.43
2022-10-19T02:17:30.713Z,1019.44
2022-10-19T02:18:30.748Z,1019.45
2022-10-19T02:19:30.701Z,1019.48
2022-10-19T02:20:30.701Z,1019.43
2022-10-19T02:21:30.664Z,1019.43
2022-10-19T02:22:30.926Z,1019.36
2022-10-19T02:23:30.635Z,1019.35
2022-10-19T02:24:30.635Z,1019.38
2022-10-19T02:25:30.620Z,1019.38
2022-10-19T02:26:30.615Z,1019.36
2022-10-19T02:27:30.588Z,1019.38
2022-10-19T02:28:30.617Z,1019.35
2022-10-19T02:29:30.568Z,1019.35
2022-10-19T02:30:30.574Z,1019.39
2022-10-19T02:31:30.555Z,1019.36
2022-10-19T02:32:30.797Z,1019.38
2022-10-19T02:33:30.526Z,1019.39
2022-10-19T02:34:30.522Z,1019.43
2022-10-19T02:35:30.535Z,1019.39
2022-10-19T02:36:30.498Z,1019.43
2022-10-19T02:37:30.538Z,1019.46
2022-10-19T02:38:30.471Z,1019.42
2022-10-19T02:39:30.465Z,1019.45
2022-10-19T02:40:30.464Z,1019.47
2022-10-19T02:41:30.467Z,1019.42
2022-10-19T02:42:30.572Z,1019.46
2022-10-19T02:43:30.421Z,1019.41
2022-10-19T02:44:30.451Z,1019.46
2022-10-19T02:45:30.391Z,1019.41
2022-10-19T02:46:30.457Z,1019.43
2022-10-19T02:47:30.446Z,1019.40
2022-10-19T02:48:30.372Z,1019.42
2022-10-19T02:49:30.352Z,1019.38
2022-10-19T02:50:30.345Z,1019.41
2022-10-19T02:51:30.368Z,1019.33
2022-10-19T02:52:30.325Z,1019.35
2022-10-19T02:53:30.307Z,1019.41
2022-10-19T02:54:30.304Z,1019.39
2022-10-19T02:55:30.327Z,1019.44
2022-10-19T02:56:30.295Z,1019.47
2022-10-19T02:57:30.286Z,1019.42
2022-10-19T02:58:30.268Z,1019.41
2022-10-19T02:59:30.245Z,1019.43
2022-10-19T03:00:30.229Z,1019.40
2022-10-19T03:01:30.227Z,1019.39
2022-10-19T03:02:30.203Z,1019.43
2022-10-19T03:03:30.220Z,1019.36
2022-10-19T03:04:30.192Z,1019.41
2022-10-19T03:05:30.177Z,1019.36
2022-10-19T03:06:30.174Z,1019.38
2022-10-19T03:07:30.166Z,1019.38
2022-10-19T03:08:30.144Z,1019.43
2022-10-19T03:09:30.145Z,1019.50
2022-10-19T03:10:30.144Z,1019.48
2022-10-19T03:11:30.125Z,1019.46
2022-10-19T03:12:30.100Z,1019.44
2022-10-19T03:13:30.092Z,1019.45
2022-10-19T03:14:30.076Z,1019.40
2022-10-19T03:15:30.076Z,1019.44
2022-10-19T03:16:30.064Z,1019.51
2022-10-19T03:17:30.099Z,1019.50
2022-10-19T03:18:30.036Z,1019.51
2022-10-19T03:19:30.029Z,1019.53
2022-10-19T03:20:30.036Z,1019.56
2022-10-19T03:21:30.024Z,1019.57
2022-10-19T03:22:30.024Z,1019.55
2022-10-19T03:23:29.982Z,1019.62
2022-10-19T03:24:29.966Z,1019.64
2022-10-19T03:25:29.961Z,1019.63
2022-10-19T03:26:29.940Z,1019.60
2022-10-19T03:27:29.953Z,1019.58
2022-10-19T03:28:29.960Z,1019.67
2022-10-19T03:29:29.918Z,1019.64
2022-10-19T03:30:29.918Z,1019.66
2022-10-19T03:31:29.954Z,1019.62
2022-10-19T03:32:29.892Z,1019.62
2022-10-19T03:33:29.897Z,1019.63
2022-10-19T03:34:29.874Z,1019.63
2022-10-19T03:35:29.855Z,1019.65
2022-10-19T03:36:29.840Z,1019.65
2022-10-19T03:37:29.840Z,1019.68
2022-10-19T03:38:29.843Z,1019.65
2022-10-19T03:39:29.811Z,1019.68
2022-10-19T03:40:29.805Z,1019.69
2022-10-19T03:41:29.794Z,1019.68
2022-10-19T03:42:29.777Z,1019.71
2022-10-19T03:43:29.768Z,1019.69
2022-10-19T03:44:29.743Z,1019.69
2022-10-19T03:45:29.749Z,1019.70
2022-10-19T03:46:29.726Z,1019.71
2022-10-19T03:47:29.731Z,1019.74
2022-10-19T03:48:29.700Z,1019.74
2022-10-19T03:49:29.704Z,1019.78
2022-10-19T03:50:29.703Z,1019.81
2022-10-19T03:51:29.685Z,1019.77
2022-10-19T03:52:29.671Z,1019.81
2022-10-19T03:53:30.601Z,1019.79
2022-10-19T03:54:29.635Z,1019.79
2022-10-19T03:55:29.642Z,1019.76
2022-10-19T03:56:29.624Z,1019.77
2022-10-19T03:57:29.626Z,1019.74
2022-10-19T03:58:29.594Z,1019.75
2022-10-19T03:59:29.583Z,1019.76
2022-10-19T04:00:29.573Z,1019.76
2022-10-19T04:01:29.618Z,1019.73
2022-10-19T04:02:29.569Z,1019.81
2022-10-19T04:03:29.680Z,1019.83
2022-10-19T04:04:29.532Z,1019.82
2022-10-19T04:05:29.519Z,1019.84
2022-10-19T04:06:29.512Z,1019.86
2022-10-19T04:07:29.505Z,1019.88
2022-10-19T04:08:29.494Z,1019.86
2022-10-19T04:09:29.507Z,1019.83
2022-10-19T04:10:29.464Z,1019.82
2022-10-19T04:11:29.463Z,1019.86
2022-10-19T04:12:29.443Z,1019.84
2022-10-19T04:13:29.464Z,1019.87
2022-10-19T04:14:32.461Z,1019.89
2022-10-19T04:15:29.415Z,1019.92
2022-10-19T04:16:29.434Z,1019.94
2022-10-19T04:17:29.386Z,1019.96
2022-10-19T04:18:29.389Z,1019.95
2022-10-19T04:19:29.390Z,1019.91
2022-10-19T04:20:29.363Z,1019.94
2022-10-19T04:21:29.359Z,1019.94
2022-10-19T04:22:29.335Z,1019.97
2022-10-19T04:23:29.349Z,1019.99
2022-10-19T04:24:29.326Z,1019.99
2022-10-19T04:25:29.304Z,1020.02
2022-10-19T04:26:29.311Z,1019.97
2022-10-19T04:27:29.289Z,1019.97
2022-10-19T04:28:29.329Z,1019.94
2022-10-19T04:29:30.045Z,1019.94
2022-10-19T04:30:29.247Z,1019.93
2022-10-19T04:31:29.236Z,1019.92
2022-10-19T04:32:29.236Z,1019.92
2022-10-19T04:33:29.232Z,1019.91
2022-10-19T04:34:29.210Z,1019.91
2022-10-19T04:35:29.196Z,1019.94
2022-10-19T04:36:29.186Z,1019.92
2022-10-19T04:37:29.179Z,1019.94
2022-10-19T04:38:29.173Z,1019.91
2022-10-19T04:39:29.187Z,1019.93
2022-10-19T04:40:29.141Z,1019.95
2022-10-19T04:41:29.138Z,1019.96
2022-10-19T04:42:29.133Z,1019.99
2022-10-19T04:43:29.118Z,1019.97
2022-10-19T04:44:29.097Z,1020.01
2022-10-19T04:45:29.085Z,1019.99
2022-10-19T04:46:29.073Z,1020.02
2022-10-19T04:47:29.062Z,1020.02
2022-10-19T04:48:29.070Z,1020.02
2022-10-19T04:49:29.054Z,1020.01
2022-10-19T04:50:29.033Z,1020.06
2022-10-19T04:51:29.026Z,1020.08
2022-10-19T04:52:29.018Z,1020.10
2022-10-19T04:53:29.019Z,1020.10
2022-10-19T04:54:28.982Z,1020.15
2022-10-19T04:55:29.033Z,1020.20
2022-10-19T04:56:28.972Z,1020.16
2022-10-19T04:57:28.955Z,1020.15
2022-10-19T04:58:28.947Z,1020.19
2022-10-19T04:59:28.927Z,1020.15
2022-10-19T05:00:28.957Z,1020.14
2022-10-19T05:01:28.922Z,1020.10
2022-10-19T05:02:28.908Z,1020.09
2022-10-19T05:03:28.915Z,1020.13
2022-10-19T05:04:28.872Z,1020.13
2022-10-19T05:05:28.873Z,1020.12
2022-10-19T05:06:28.866Z,1020.14
2022-10-19T05:07:28.841Z,1020.10
2022-10-19T05:08:28.852Z,1020.11
2022-10-19T05:09:28.824Z,1020.16
2022-10-19T05:10:28.803Z,1020.15
2022-10-19T05:11:28.805Z,1020.13
2022-10-19T05:12:28.803Z,1020.18
2022-10-19T05:13:28.783Z,1020.19
2022-10-19T05:14:28.842Z,1020.19
2022-10-19T05:15:28.765Z,1020.21
2022-10-19T05:16:28.745Z,1020.21
2022-10-19T05:17:28.735Z,1020.20
2022-10-19T05:18:28.736Z,1020.21
2022-10-19T05:19:28.727Z,1020.26
2022-10-19T05:20:28.698Z,1020.26
2022-10-19T05:21:28.744Z,1020.29
2022-10-19T05:22:28.672Z,1020.28
2022-10-19T05:23:28.741Z,1020.31
2022-10-19T05:24:28.683Z,1020.29
2022-10-19T05:25:28.669Z,1020.30
2022-10-19T05:26:28.634Z,1020.34
2022-10-19T05:27:28.632Z,1020.33
2022-10-19T05:28:28.651Z,1020.37
2022-10-19T05:29:28.614Z,1020.36
2022-10-19T05:30:28.592Z,1020.36
2022-10-19T05:31:28.583Z,1020.34
2022-10-19T05:32:28.585Z,1020.36
2022-10-19T05:33:28.569Z,1020.36
2022-10-19T05:34:28.558Z,1020.34
2022-10-19T05:35:28.613Z,1020.38
2022-10-19T05:36:28.517Z,1020.37
2022-10-19T05:37:28.526Z,1020.36
2022-10-19T05:38:28.504Z,1020.36
2022-10-19T05:39:28.520Z,1020.40
2022-10-19T05:40:28.483Z,1020.35
2022-10-19T05:41:28.491Z,1020.35
2022-10-19T05:42:28.467Z,1020.34
2022-10-19T05:43:28.453Z,1020.33
2022-10-19T05:44:28.487Z,1020.35
2022-10-19T05:45:28.428Z,1020.34
2022-10-19T05:46:28.417Z,1020.34
2022-10-19T05:47:30.969Z,1020.35
2022-10-19T05:48:28.394Z,1020.40
2022-10-19T05:49:28.410Z,1020.38
2022-10-19T05:50:28.389Z,1020.40
2022-10-19T05:51:28.434Z,1020.40
2022-10-19T05:52:28.364Z,1020.37
2022-10-19T05:53:28.387Z,1020.38
2022-10-19T05:54:28.802Z,1020.36
2022-10-19T05:55:28.333Z,1020.36
2022-10-19T05:56:28.301Z,1020.36
2022-10-19T05:57:29.187Z,1020.38
2022-10-19T05:58:28.283Z,1020.39
2022-10-19T05:59:28.279Z,1020.38
2022-10-19T06:00:28.352Z,1020.34
2022-10-19T06:01:28.297Z,1020.35
2022-10-19T06:02:28.244Z,1020.37
2022-10-19T06:03:28.230Z,1020.35
2022-10-19T06:04:28.219Z,1020.34
2022-10-19T06:05:28.224Z,1020.35
2022-10-19T06:06:28.191Z,1020.36
2022-10-19T06:07:28.209Z,1020.34
2022-10-19T06:08:28.172Z,1020.36
2022-10-19T06:09:28.168Z,1020.40
2022-10-19T06:10:28.239Z,1020.40
2022-10-19T06:11:28.150Z,1020.43
2022-10-19T06:12:28.207Z,1020.40
2022-10-19T06:13:28.124Z,1020.43
2022-10-19T06:14:28.110Z,1020.48
2022-10-19T06:15:28.108Z,1020.46
2022-10-19T06:16:28.087Z,1020.48
2022-10-19T06:17:28.402Z,1020.48
2022-10-19T06:18:28.072Z,1020.51
2022-10-19T06:19:28.139Z,1020.53
2022-10-19T06:20:28.137Z,1020.57
2022-10-19T06:21:28.029Z,1020.57
2022-10-19T06:22:28.041Z,1020.60
2022-10-19T06:23:28.083Z,1020.61
2022-10-19T06:24:28.004Z,1020.61
2022-10-19T06:25:28.047Z,1020.62
2022-10-19T06:26:28.007Z,1020.63
2022-10-19T06:27:28.014Z,1020.63
2022-10-19T06:28:28.003Z,1020.64
2022-10-19T06:29:28.220Z,1020.64
2022-10-19T06:30:28.575Z,1020.62
2022-10-19T06:31:27.955Z,1020.59
2022-10-19T06:32:27.987Z,1020.67
2022-10-19T06:33:28.087Z,1020.70
2022-10-19T06:34:28.295Z,1020.68
2022-10-19T06:35:27.939Z,1020.67
2022-10-19T06:36:28.243Z,1020.72
2022-10-19T06:37:27.996Z,1020.67
2022-10-19T06:38:28.060Z,1020.70
2022-10-19T06:39:27.949Z,1020.65
2022-10-19T06:40:28.286Z,1020.65
2022-10-19T06:41:28.031Z,1020.62
2022-10-19T06:42:27.852Z,1020.58
2022-10-19T06:43:28.415Z,1020.53
2022-10-19T06:44:27.879Z,1020.60
2022-10-19T06:45:30.209Z,1020.59
2022-10-19T06:46:28.409Z,1020.59
2022-10-19T06:47:27.820Z,1020.60
2022-10-19T06:48:27.758Z,1020.61
2022-10-19T06:49:27.728Z,1020.61
2022-10-19T06:50:27.965Z,1020.63
2022-10-19T06:51:27.745Z,1020.65
2022-10-19T06:52:27.690Z,1020.72
2022-10-19T06:53:27.695Z,1020.69
2022-10-19T06:54:27.874Z,1020.69
2022-10-19T06:55:27.674Z,1020.70
2022-10-19T06:56:27.751Z,1020.70
2022-10-19T06:57:27.736Z,1020.70
2022-10-19T06:58:27.638Z,1020.80
2022-10-19T06:59:27.624Z,1020.78
2022-10-19T07:00:27.649Z,1020.79
2022-10-19T07:01:27.753Z,1020.80
2022-10-19T07:02:27.587Z,1020.81
2022-10-19T07:03:27.586Z,1020.84
2022-10-19T07:04:27.566Z,1020.85
2022-10-19T07:05:27.587Z,1020.83
2022-10-19T07:06:27.562Z,1020.81
2022-10-19T07:07:27.617Z,1020.84
2022-10-19T07:08:27.520Z,1020.84
2022-10-19T07:09:27.512Z,1020.83
2022-10-19T07:10:27.511Z,1020.82
2022-10-19T07:11:27.502Z,1020.78
2022-10-19T07:12:27.473Z,1020.76
2022-10-19T07:13:27.550Z,1020.80
2022-10-19T07:14:27.453Z,1020.78
2022-10-19T07:15:27.450Z,1020.81
2022-10-19T07:16:28.068Z,1020.81
2022-10-19T07:17:27.432Z,1020.81
2022-10-19T07:18:27.416Z,1020.83
2022-10-19T07:19:27.425Z,1020.82
2022-10-19T07:20:27.407Z,1020.87
2022-10-19T07:21:27.380Z,1020.92
2022-10-19T07:22:28.362Z,1020.94
2022-10-19T07:23:27.386Z,1020.97
2022-10-19T07:24:27.345Z,1020.95
2022-10-19T07:25:27.337Z,1020.97
2022-10-19T07:26:27.335Z,1020.94
2022-10-19T07:27:27.316Z,1020.94
2022-10-19T07:28:27.305Z,1020.97
2022-10-19T07:29:27.288Z,1020.94
2022-10-19T07:30:27.275Z,1020.94
2022-10-19T07:31:27.294Z,1020.93
2022-10-19T07:32:27.275Z,1020.97
2022-10-19T07:33:27.252Z,1020.93
2022-10-19T07:34:28.978Z,1020.94
2022-10-19T07:35:27.228Z,1020.93
2022-10-19T07:36:27.215Z,1020.97
2022-10-19T07:37:27.291Z,1020.96
2022-10-19T07:38:27.210Z,1020.93
2022-10-19T07:39:27.195Z,1020.95
2022-10-19T07:40:27.175Z,1020.97
2022-10-19T07:41:27.164Z,1020.96
2022-10-19T07:42:27.178Z,1020.99
2022-10-19T07:43:27.160Z,1020.99
2022-10-19T07:44:27.172Z,1021.01
2022-10-19T07:45:27.137Z,1021.02
2022-10-19T07:46:27.105Z,1021.03
2022-10-19T07:47:27.108Z,1021.07
2022-10-19T07:48:27.077Z,1021.07
2022-10-19T07:49:27.085Z,1021.06
2022-10-19T07:50:27.064Z,1021.09
2022-10-19T07:51:27.039Z,1021.11
2022-10-19T07:52:27.068Z,1021.11
2022-10-19T07:53:27.022Z,1021.11
2022-10-19T07:54:27.018Z,1021.11
2022-10-19T07:55:27.016Z,1021.10
2022-10-19T07:56:27.001Z,1021.15
2022-10-19T07:57:27.033Z,1021.17
2022-10-19T07:58:26.976Z,1021.20
2022-10-19T07:59:26.991Z,1021.16
2022-10-19T08:00:27.034Z,1021.13
2022-10-19T08:01:26.935Z,1021.14
2022-10-19T08:02:30.969Z,1021.16
2022-10-19T08:05:26.996Z,1021.21
2022-10-19T08:06:26.886Z,1021.19
2022-10-19T08:07:26.976Z,1021.19
2022-10-19T08:08:27.040Z,1021.19
2022-10-19T08:09:51.919Z,1021.17
2022-10-19T08:10:26.850Z,1021.21
2022-10-19T08:11:26.823Z,1021.16
2022-10-19T08:12:26.807Z,1021.22
2022-10-19T08:13:26.809Z,1021.24
2022-10-19T08:14:26.791Z,1021.30
2022-10-19T08:15:26.779Z,1021.30
2022-10-19T08:16:26.813Z,1021.30
2022-10-19T08:17:26.757Z,1021.28
2022-10-19T08:18:26.798Z,1021.29
2022-10-19T08:19:26.796Z,1021.30
2022-10-19T08:20:26.726Z,1021.31
2022-10-19T08:21:26.704Z,1021.34
2022-10-19T08:22:26.704Z,1021.34
2022-10-19T08:23:26.704Z,1021.36
2022-10-19T08:24:26.680Z,1021.35
2022-10-19T08:25:26.671Z,1021.35
2022-10-19T08:26:26.661Z,1021.35
2022-10-19T08:27:26.679Z,1021.37
2022-10-19T08:28:26.677Z,1021.43
2022-10-19T08:29:29.118Z,1021.38
2022-10-19T08:30:26.625Z,1021.40
2022-10-19T08:31:26.650Z,1021.35
2022-10-19T08:32:26.601Z,1021.37
2022-10-19T08:33:26.591Z,1021.38
2022-10-19T08:34:26.571Z,1021.37
2022-10-19T08:35:26.551Z,1021.37
2022-10-19T08:36:26.543Z,1021.37
2022-10-19T08:37:40.731Z,1021.38
2022-10-19T08:38:26.558Z,1021.39
2022-10-19T08:39:26.510Z,1021.39
2022-10-19T08:40:26.558Z,1021.44
2022-10-19T08:41:26.504Z,1021.42
2022-10-19T08:42:26.495Z,1021.42
2022-10-19T08:43:26.504Z,1021.45
2022-10-19T08:44:26.457Z,1021.46
2022-10-19T08:45:26.455Z,1021.46
2022-10-19T08:46:26.441Z,1021.47
2022-10-19T08:47:26.421Z,1021.47
2022-10-19T08:48:26.421Z,1021.45
2022-10-19T08:49:26.409Z,1021.49
2022-10-19T08:50:26.399Z,1021.47
2022-10-19T08:51:26.390Z,1021.47
2022-10-19T08:52:29.531Z,1021.45
2022-10-19T08:53:26.352Z,1021.48
2022-10-19T08:54:26.366Z,1021.45
2022-10-19T08:55:26.333Z,1021.41
2022-10-19T08:56:49.215Z,1021.44
2022-10-19T08:57:26.323Z,1021.47
2022-10-19T08:58:26.300Z,1021.47
2022-10-19T08:59:26.366Z,1021.48
2022-10-19T09:00:26.376Z,1021.46
2022-10-19T09:01:26.275Z,1021.48
2022-10-19T09:02:26.352Z,1021.44
2022-10-19T09:03:37.798Z,1021.44
2022-10-19T09:04:26.279Z,1021.42
2022-10-19T09:05:26.244Z,1021.48
2022-10-19T09:06:26.220Z,1021.44
2022-10-19T09:07:26.198Z,1021.48
2022-10-19T09:08:26.281Z,1021.51
2022-10-19T09:09:26.185Z,1021.51
2022-10-19T09:10:26.185Z,1021.51
2022-10-19T09:11:26.193Z,1021.47
2022-10-19T09:12:26.151Z,1021.52
2022-10-19T09:13:32.391Z,1021.55
2022-10-19T09:14:26.149Z,1021.54
2022-10-19T09:15:26.127Z,1021.56
2022-10-19T09:16:26.102Z,1021.53
2022-10-19T09:17:26.095Z,1021.58
2022-10-19T09:18:26.118Z,1021.59
2022-10-19T09:19:26.247Z,1021.62
2022-10-19T09:20:26.072Z,1021.63
2022-10-19T09:21:33.404Z,1021.60
2022-10-19T09:22:26.046Z,1021.60
2022-10-19T09:23:26.022Z,1021.61
2022-10-19T09:24:26.019Z,1021.65
2022-10-19T09:25:26.010Z,1021.66
2022-10-19T09:26:26.006Z,1021.63
2022-10-19T09:27:26.050Z,1021.64
2022-10-19T09:28:31.396Z,1021.64
2022-10-19T09:29:25.965Z,1021.68
2022-10-19T09:30:26.003Z,1021.70
2022-10-19T09:31:29.097Z,1021.70
2022-10-19T09:32:25.932Z,1021.67
2022-10-19T09:33:26.013Z,1021.70
2022-10-19T09:34:25.905Z,1021.70
2022-10-19T09:35:25.897Z,1021.75
2022-10-19T09:36:39.385Z,1021.75
2022-10-19T09:37:26.742Z,1021.76
2022-10-19T09:38:25.864Z,1021.73
2022-10-19T09:39:28.654Z,1021.72
2022-10-19T09:40:25.860Z,1021.72
2022-10-19T09:41:25.837Z,1021.74
2022-10-19T09:42:25.818Z,1021.74
2022-10-19T09:43:25.928Z,1021.72
2022-10-19T09:44:25.789Z,1021.75
2022-10-19T09:45:25.776Z,1021.78
2022-10-19T09:46:25.827Z,1021.79
2022-10-19T09:47:25.764Z,1021.78
2022-10-19T09:48:25.783Z,1021.79
2022-10-19T09:49:25.731Z,1021.82
2022-10-19T09:50:25.738Z,1021.82
2022-10-19T09:51:25.721Z,1021.90
2022-10-19T09:52:25.697Z,1021.89
2022-10-19T09:53:25.717Z,1021.87
2022-10-19T09:54:25.697Z,1021.81
2022-10-19T09:55:25.667Z,1021.83
2022-10-19T09:56:25.664Z,1021.88
2022-10-19T09:57:25.651Z,1021.90
2022-10-19T09:58:29.114Z,1021.85
2022-10-19T09:59:25.630Z,1021.85
2022-10-19T10:00:25.642Z,1021.86
2022-10-19T10:01:28.315Z,1021.88
2022-10-19T10:02:25.612Z,1021.85
2022-10-19T10:03:25.582Z,1021.84
2022-10-19T10:04:25.729Z,1021.87
2022-10-19T10:05:25.568Z,1021.88
2022-10-19T10:06:25.573Z,1021.91
2022-10-19T10:07:25.534Z,1021.89
2022-10-19T10:08:25.633Z,1021.87
2022-10-19T10:09:25.518Z,1021.90
2022-10-19T10:10:28.164Z,1021.90
2022-10-19T10:11:25.501Z,1021.89
2022-10-19T10:12:25.530Z,1021.88
2022-10-19T10:13:25.495Z,1021.87
2022-10-19T10:14:25.460Z,1021.87
2022-10-19T10:15:25.450Z,1021.84
2022-10-19T10:16:25.444Z,1021.84
2022-10-19T10:17:25.435Z,1021.81
2022-10-19T10:18:25.416Z,1021.80
2022-10-19T10:19:27.244Z,1021.78
2022-10-19T10:20:25.403Z,1021.75
2022-10-19T10:21:26.164Z,1021.81
2022-10-19T10:22:25.371Z,1021.82
2022-10-19T10:23:25.377Z,1021.81
2022-10-19T10:24:25.342Z,1021.81
2022-10-19T10:25:25.330Z,1021.81
2022-10-19T10:26:25.349Z,1021.84
2022-10-19T10:27:25.352Z,1021.82
2022-10-19T10:28:25.302Z,1021.84
2022-10-19T10:29:25.388Z,1021.83
2022-10-19T10:30:25.283Z,1021.81
2022-10-19T10:31:25.270Z,1021.84
2022-10-19T10:32:25.268Z,1021.88
2022-10-19T10:33:40.722Z,1021.85
2022-10-19T10:34:37.623Z,1021.86
2022-10-19T10:35:25.236Z,1021.88
2022-10-19T10:36:25.209Z,1021.90
2022-10-19T10:37:25.232Z,1021.92
2022-10-19T10:38:25.196Z,1021.91
2022-10-19T10:39:25.196Z,1021.94
2022-10-19T10:40:25.210Z,1021.92
2022-10-19T10:41:25.159Z,1021.92
2022-10-19T10:42:25.160Z,1021.90
2022-10-19T10:43:25.158Z,1021.89
2022-10-19T10:44:25.133Z,1021.87
2022-10-19T10:45:25.297Z,1021.88
2022-10-19T10:46:25.119Z,1021.90
2022-10-19T10:47:25.093Z,1021.90
2022-10-19T10:48:25.093Z,1021.92
2022-10-19T10:49:25.087Z,1021.89
2022-10-19T10:50:25.062Z,1021.86
2022-10-19T10:51:25.055Z,1021.90
2022-10-19T10:52:25.052Z,1021.88
2022-10-19T10:53:25.055Z,1021.87
2022-10-19T10:54:25.025Z,1021.85
2022-10-19T10:55:25.015Z,1021.83
2022-10-19T10:56:25.054Z,1021.89
2022-10-19T10:57:24.993Z,1021.87
2022-10-19T10:58:26.882Z,1021.89
2022-10-19T10:59:25.000Z,1021.91
2022-10-19T11:00:24.947Z,1021.85
2022-10-19T11:01:24.981Z,1021.87
2022-10-19T11:03:24.937Z,1021.86
2022-10-19T11:04:24.924Z,1021.84
2022-10-19T11:05:24.899Z,1021.87
2022-10-19T11:07:24.879Z,1021.89
2022-10-19T11:08:24.947Z,1021.89
2022-10-19T11:09:24.877Z,1021.88
2022-10-19T11:10:24.841Z,1021.86
2022-10-19T11:11:24.840Z,1021.84
2022-10-19T11:12:24.824Z,1021.89
2022-10-19T11:13:24.803Z,1021.83
2022-10-19T11:14:24.809Z,1021.85
2022-10-19T11:15:24.881Z,1021.86
2022-10-19T11:16:24.789Z,1021.81
2022-10-19T11:17:24.763Z,1021.85
2022-10-19T11:18:24.821Z,1021.81
2022-10-19T11:19:24.753Z,1021.82
2022-10-19T11:20:24.759Z,1021.86
2022-10-19T11:21:24.724Z,1021.84
2022-10-19T11:22:26.366Z,1021.88
2022-10-19T11:23:24.701Z,1021.87
2022-10-19T11:24:24.762Z,1021.90
2022-10-19T11:25:24.709Z,1021.91
2022-10-19T11:26:24.690Z,1021.87
2022-10-19T11:27:24.673Z,1021.84
2022-10-19T11:28:24.640Z,1021.83
2022-10-19T11:29:24.641Z,1021.81
2022-10-19T11:30:24.630Z,1021.77
2022-10-19T11:31:24.614Z,1021.73
2022-10-19T11:32:25.633Z,1021.79
2022-10-19T11:33:24.580Z,1021.73
2022-10-19T11:34:26.016Z,1021.75
2022-10-19T11:35:24.660Z,1021.76
2022-10-19T11:36:24.596Z,1021.65
2022-10-19T11:37:24.593Z,1021.63
2022-10-19T11:38:29.588Z,1021.67
2022-10-19T11:39:24.547Z,1021.64
2022-10-19T11:40:24.512Z,1021.62
2022-10-19T11:41:24.514Z,1021.75
2022-10-19T11:42:24.488Z,1021.70
2022-10-19T11:43:26.966Z,1021.68
2022-10-19T11:44:24.476Z,1021.72
2022-10-19T11:45:24.482Z,1021.60
2022-10-19T11:46:24.500Z,1021.61
2022-10-19T11:47:24.447Z,1021.57
2022-10-19T11:48:24.426Z,1021.55
2022-10-19T11:49:24.404Z,1021.54
2022-10-19T11:50:27.073Z,1021.55
2022-10-19T11:51:24.391Z,1021.55
2022-10-19T11:52:24.390Z,1021.57
2022-10-19T11:53:24.374Z,1021.55
2022-10-19T11:54:24.414Z,1021.56
2022-10-19T11:55:24.345Z,1021.56
2022-10-19T11:56:34.793Z,1021.50
2022-10-19T11:57:25.183Z,1021.51
2022-10-19T11:58:24.355Z,1021.52
2022-10-19T11:59:24.310Z,1021.57
2022-10-19T12:00:38.858Z,1021.59
2022-10-19T12:01:24.928Z,1021.57
2022-10-19T12:02:24.699Z,1021.58
2022-10-19T12:03:24.495Z,1021.57
2022-10-19T12:04:24.269Z,1021.62
2022-10-19T12:05:24.335Z,1021.62
2022-10-19T12:06:24.239Z,1021.61
2022-10-19T12:07:24.230Z,1021.55
2022-10-19T12:08:24.307Z,1021.59
2022-10-19T12:09:24.194Z,1021.55